Time;durP1;ratioP1;P1;durP2;ratioP2;P2;SDS_P1;SDS_P2;PMS_P1;PMS_P2;Temp;Humidity;BMP_temperature;BMP_pressure;BME280_temperature;BME280_humidity;BME280_pressure;Samples;Min_cycle;Max_cycle;Signal;HPM_P1;HPM_P2
2021/09/27 00:00:40;;;;;;;15.07;10.03;;;18.10;99.90;;;;;;5050249;28;20223;-71
2021/09/27 00:03:06;;;;;;;13.20;10.97;;;18.10;99.90;;;;;;5052720;28;20463;-71
2021/09/27 00:05:32;;;;;;;13.43;9.90;;;18.10;99.90;;;;;;5053266;28;20485;-72
2021/09/27 00:07:58;;;;;;;16.13;11.13;;;18.10;99.90;;;;;;5032714;28;20851;-72
2021/09/27 00:10:28;;;;;;;13.63;10.47;;;18.00;99.90;;;;;;5051538;28;20631;-72
2021/09/27 00:12:55;;;;;;;13.20;11.20;;;17.90;99.90;;;;;;5040826;28;20215;-72
2021/09/27 00:15:27;;;;;;;12.67;9.60;;;17.90;99.90;;;;;;5033269;28;20457;-72
2021/09/27 00:17:53;;;;;;;11.87;9.53;;;17.90;99.90;;;;;;5052386;28;20469;-71
2021/09/27 00:20:19;;;;;;;11.73;9.87;;;17.80;99.90;;;;;;5036621;28;20503;-72
2021/09/27 00:22:45;;;;;;;14.90;10.87;;;17.80;99.90;;;;;;5036678;28;20456;-71
2021/09/27 00:25:11;;;;;;;11.30;9.30;;;17.80;99.90;;;;;;5031935;28;20461;-71
2021/09/27 00:27:37;;;;;;;18.63;10.40;;;17.80;99.90;;;;;;5064628;28;20215;-71
2021/09/27 00:30:04;;;;;;;13.67;10.73;;;17.80;99.90;;;;;;5070458;28;20452;-72
2021/09/27 00:32:30;;;;;;;12.53;10.40;;;17.70;99.90;;;;;;5036559;28;20702;-72
2021/09/27 00:34:57;;;;;;;10.90;9.43;;;17.70;99.90;;;;;;5036243;28;20480;-71
2021/09/27 00:37:22;;;;;;;14.43;10.87;;;17.70;99.90;;;;;;5048886;28;20453;-71
2021/09/27 00:39:48;;;;;;;12.60;10.27;;;17.70;99.90;;;;;;5051074;28;20628;-72
2021/09/27 00:42:14;;;;;;;11.83;9.73;;;17.70;99.90;;;;;;5034401;28;20234;-71
2021/09/27 00:44:40;;;;;;;13.10;10.30;;;17.70;99.90;;;;;;5063587;28;20363;-72
2021/09/27 00:47:06;;;;;;;12.73;10.70;;;17.60;99.90;;;;;;5034963;28;20253;-71
2021/09/27 00:49:32;;;;;;;13.57;10.00;;;17.70;99.90;;;;;;5041236;28;20219;-72
2021/09/27 00:51:58;;;;;;;14.03;10.17;;;17.70;99.90;;;;;;5034276;28;20219;-72
2021/09/27 00:54:32;;;;;;;15.20;10.50;;;17.70;99.90;;;;;;5037903;28;20252;-72
2021/09/27 00:57:12;;;;;;;10.60;9.50;;;17.70;99.90;;;;;;5035004;28;20258;-72
2021/09/27 00:59:41;;;;;;;13.23;9.80;;;17.70;99.90;;;;;;5070053;28;20457;-72
2021/09/27 01:02:08;;;;;;;14.53;10.63;;;17.70;99.90;;;;;;5047503;28;20465;-71
2021/09/27 01:04:34;;;;;;;14.23;10.03;;;17.70;99.90;;;;;;5030668;28;20484;-72
2021/09/27 01:07:06;;;;;;;13.00;10.10;;;17.70;99.90;;;;;;5042730;28;20445;-72
2021/09/27 01:09:57;;;;;;;12.60;9.87;;;17.70;99.90;;;;;;5050720;28;20458;-72
2021/09/27 01:12:48;;;;;;;14.17;11.10;;;17.70;99.90;;;;;;5036267;28;20461;-71
2021/09/27 01:15:17;;;;;;;21.63;10.30;;;17.60;99.90;;;;;;5066027;28;20472;-72
2021/09/27 01:18:03;;;;;;;13.10;10.50;;;17.60;99.90;;;;;;5038715;28;20530;-73
2021/09/27 01:20:31;;;;;;;11.60;9.53;;;17.60;99.90;;;;;;5050702;28;20875;-72
2021/09/27 01:23:12;;;;;;;13.30;10.50;;;17.60;99.90;;;;;;5063682;28;20459;-71
2021/09/27 01:26:05;;;;;;;14.10;10.20;;;17.60;99.90;;;;;;5035053;28;20904;-72
2021/09/27 01:29:02;;;;;;;11.93;10.13;;;17.60;99.90;;;;;;5049985;28;20834;-72
2021/09/27 01:31:54;;;;;;;15.20;10.87;;;17.50;99.90;;;;;;5045682;28;20449;-72
2021/09/27 01:34:32;;;;;;;15.50;12.27;;;17.50;99.90;;;;;;5032203;28;20477;-72
2021/09/27 01:37:07;;;;;;;14.63;11.03;;;17.50;99.90;;;;;;5032145;28;20516;-72
2021/09/27 01:39:57;;;;;;;15.70;11.33;;;17.40;99.90;;;;;;5033714;28;20457;-72
2021/09/27 01:42:43;;;;;;;18.07;12.67;;;17.40;99.90;;;;;;5051134;28;20995;-72
2021/09/27 01:45:14;;;;;;;20.00;12.97;;;17.40;99.90;;;;;;5044933;28;20437;-72
2021/09/27 01:47:47;;;;;;;20.63;11.80;;;17.30;99.90;;;;;;5048661;28;20806;-72
2021/09/27 01:50:25;;;;;;;18.90;11.77;;;17.30;99.90;;;;;;5036119;28;20461;-72
2021/09/27 01:52:59;;;;;;;17.97;12.10;;;17.30;99.90;;;;;;5049413;28;20507;-72
2021/09/27 01:55:44;;;;;;;16.93;11.43;;;17.30;99.90;;;;;;5065050;28;20458;-71
2021/09/27 01:58:33;;;;;;;13.77;10.17;;;17.30;99.90;;;;;;5038985;28;20852;-72
2021/09/27 02:01:06;;;;;;;16.20;11.20;;;17.30;99.90;;;;;;5036542;28;20492;-71
2021/09/27 02:04:06;;;;;;;14.10;9.77;;;17.40;99.90;;;;;;5049941;28;20477;-72
2021/09/27 02:06:44;;;;;;;16.90;10.10;;;17.40;99.90;;;;;;5009877;28;20453;-72
2021/09/27 02:09:12;;;;;;;17.57;10.57;;;17.40;99.90;;;;;;5045012;28;20465;-72
2021/09/27 02:11:41;;;;;;;18.00;12.20;;;17.40;99.90;;;;;;5034639;28;20558;-73
2021/09/27 02:14:23;;;;;;;16.47;10.87;;;17.40;99.90;;;;;;5048548;28;20466;-72
2021/09/27 02:17:15;;;;;;;15.33;10.53;;;17.40;99.90;;;;;;5025735;28;20482;-70
2021/09/27 02:19:44;;;;;;;13.23;9.77;;;17.40;99.90;;;;;;5030437;28;20466;-72
2021/09/27 02:22:21;;;;;;;17.27;11.20;;;17.40;99.90;;;;;;5047875;28;20461;-72
2021/09/27 02:24:52;;;;;;;14.83;11.07;;;17.40;99.90;;;;;;5064925;28;20496;-71
2021/09/27 02:27:18;;;;;;;17.20;10.00;;;17.40;99.90;;;;;;5047402;28;20457;-72
2021/09/27 02:29:43;;;;;;;17.33;11.47;;;17.40;99.90;;;;;;5032628;28;20491;-72
2021/09/27 02:32:12;;;;;;;18.00;12.37;;;17.40;99.90;;;;;;5039920;28;20227;-72
2021/09/27 02:34:47;;;;;;;18.43;11.00;;;17.40;99.90;;;;;;5046939;28;20220;-72
2021/09/27 02:37:30;;;;;;;19.30;12.73;;;17.40;99.90;;;;;;5034167;28;20445;-72
2021/09/27 02:40:21;;;;;;;15.40;11.43;;;17.40;99.90;;;;;;5032114;28;20964;-72
2021/09/27 02:42:53;;;;;;;17.33;11.30;;;17.40;99.90;;;;;;5033066;28;20450;-72
2021/09/27 02:45:21;;;;;;;18.23;11.90;;;17.40;99.90;;;;;;5027597;28;20457;-73
2021/09/27 02:47:51;;;;;;;17.30;11.50;;;17.40;99.90;;;;;;5053204;28;20993;-72
2021/09/27 02:50:27;;;;;;;14.60;10.53;;;17.40;99.90;;;;;;5045322;28;20454;-72
2021/09/27 02:52:55;;;;;;;14.23;10.83;;;17.40;99.90;;;;;;5058414;28;20454;-72
2021/09/27 02:55:30;;;;;;;16.63;11.17;;;17.50;99.90;;;;;;5031280;28;20450;-72
2021/09/27 02:58:07;;;;;;;17.47;11.00;;;17.40;99.90;;;;;;5045899;28;20557;-71
2021/09/27 03:00:48;;;;;;;18.53;11.77;;;17.40;99.90;;;;;;5033417;28;20531;-72
2021/09/27 03:03:41;;;;;;;15.77;10.60;;;17.40;99.90;;;;;;5067305;28;20528;-72
2021/09/27 03:06:35;;;;;;;16.60;11.00;;;17.40;99.90;;;;;;5032789;28;20475;-71
2021/09/27 03:09:28;;;;;;;17.13;12.70;;;17.40;99.90;;;;;;5064195;28;20823;-72
2021/09/27 03:12:02;;;;;;;19.93;12.73;;;17.40;99.90;;;;;;5060219;28;20506;-71
2021/09/27 03:14:47;;;;;;;17.70;12.07;;;17.40;99.90;;;;;;5031329;28;20449;-72
2021/09/27 03:17:35;;;;;;;17.33;12.23;;;17.40;99.90;;;;;;5036249;28;20450;-72
2021/09/27 03:20:06;;;;;;;17.33;11.93;;;17.40;99.90;;;;;;5046003;28;20441;-72
2021/09/27 03:23:05;;;;;;;17.80;12.73;;;17.40;99.90;;;;;;5032392;28;20477;-72
2021/09/27 03:25:37;;;;;;;18.93;12.23;;;17.40;99.90;;;;;;5050368;28;20544;-72
2021/09/27 03:28:14;;;;;;;20.90;12.50;;;17.40;99.90;;;;;;5033842;28;20457;-72
2021/09/27 03:31:06;;;;;;;16.00;11.93;;;17.40;99.90;;;;;;5030872;28;20446;-72
2021/09/27 03:34:19;;;;;;;15.80;11.00;;;17.40;99.90;;;;;;5023667;28;20492;-72
2021/09/27 03:37:18;;;;;;;17.73;11.27;;;17.40;99.90;;;;;;5017479;28;20977;-72
2021/09/27 03:40:07;;;;;;;19.93;11.03;;;17.40;99.90;;;;;;5063137;28;20458;-72
2021/09/27 03:42:57;;;;;;;16.63;10.90;;;17.40;99.90;;;;;;5049728;28;20483;-72
2021/09/27 03:45:30;;;;;;;18.37;11.50;;;17.40;99.90;;;;;;5048735;28;20445;-72
2021/09/27 03:48:03;;;;;;;15.20;11.03;;;17.40;99.90;;;;;;5029475;28;20460;-72
2021/09/27 03:50:36;;;;;;;16.67;10.43;;;17.40;99.90;;;;;;5029655;28;20962;-72
2021/09/27 03:53:08;;;;;;;17.57;11.30;;;17.40;99.90;;;;;;5043153;28;20465;-72
2021/09/27 03:55:44;;;;;;;15.80;11.20;;;17.40;99.90;;;;;;5029732;28;20820;-72
2021/09/27 03:58:17;;;;;;;16.30;11.20;;;17.40;99.90;;;;;;5034168;28;20968;-72
2021/09/27 04:01:12;;;;;;;15.60;10.67;;;17.40;99.90;;;;;;5048639;28;20469;-73
2021/09/27 04:04:02;;;;;;;15.50;10.10;;;17.40;99.90;;;;;;5070716;28;20606;-72
2021/09/27 04:06:46;;;;;;;16.80;10.87;;;17.40;99.90;;;;;;5033557;28;20987;-72
2021/09/27 04:09:33;;;;;;;14.50;9.13;;;17.40;99.90;;;;;;5046346;28;20442;-72
2021/09/27 04:12:17;;;;;;;13.97;9.77;;;17.40;99.90;;;;;;5045571;28;20522;-72
2021/09/27 04:15:14;;;;;;;17.27;9.80;;;17.40;99.90;;;;;;5067496;28;20923;-72
2021/09/27 04:17:55;;;;;;;11.93;8.93;;;17.40;99.90;;;;;;5040293;28;20449;-72
2021/09/27 04:20:29;;;;;;;11.27;8.70;;;17.40;99.90;;;;;;5034783;28;20465;-72
2021/09/27 04:23:19;;;;;;;13.90;9.37;;;17.40;99.90;;;;;;5064808;28;20453;-72
2021/09/27 04:26:07;;;;;;;12.20;8.90;;;17.40;99.90;;;;;;5064234;28;21000;-72
2021/09/27 04:28:48;;;;;;;14.00;10.23;;;17.30;99.90;;;;;;5033806;28;20458;-72
2021/09/27 04:31:41;;;;;;;13.20;9.40;;;17.40;99.90;;;;;;5045382;28;20453;-72
2021/09/27 04:34:53;;;;;;;16.70;10.47;;;17.30;99.90;;;;;;5032897;28;20541;-72
2021/09/27 04:37:20;;;;;;;15.73;9.73;;;17.20;99.90;;;;;;5045497;28;20499;-72
2021/09/27 04:39:47;;;;;;;13.97;9.50;;;17.20;99.90;;;;;;5050576;28;20445;-73
2021/09/27 04:42:41;;;;;;;13.80;9.70;;;17.20;99.90;;;;;;5034326;28;20478;-72
2021/09/27 04:45:24;;;;;;;13.77;8.90;;;17.20;99.90;;;;;;5062498;28;20514;-72
2021/09/27 04:48:11;;;;;;;13.07;8.97;;;17.20;99.90;;;;;;5052653;28;20461;-72
2021/09/27 04:50:40;;;;;;;12.77;9.03;;;17.20;99.90;;;;;;5050616;28;20829;-72
2021/09/27 04:53:22;;;;;;;13.47;9.97;;;17.20;99.90;;;;;;5049065;28;20457;-72
2021/09/27 04:56:06;;;;;;;15.07;10.07;;;17.20;99.90;;;;;;5049120;28;20545;-71
2021/09/27 04:59:03;;;;;;;10.00;8.40;;;17.20;99.90;;;;;;5047766;28;20807;-72
2021/09/27 05:02:05;;;;;;;9.20;7.83;;;17.20;99.90;;;;;;5045473;28;20536;-72
2021/09/27 05:04:46;;;;;;;8.77;6.83;;;17.20;99.90;;;;;;5030292;28;20516;-72
2021/09/27 05:07:54;;;;;;;12.10;8.80;;;17.20;99.90;;;;;;5047374;28;20799;-72
2021/09/27 05:10:19;;;;;;;9.10;7.50;;;17.20;99.90;;;;;;5048853;28;20528;-72
2021/09/27 05:13:05;;;;;;;11.40;8.40;;;17.20;99.90;;;;;;5042040;28;20545;-72
2021/09/27 05:16:01;;;;;;;9.00;6.27;;;17.20;99.90;;;;;;5036403;28;20234;-72
2021/09/27 05:18:47;;;;;;;10.90;8.23;;;17.20;99.90;;;;;;5033682;28;20455;-72
2021/09/27 05:21:33;;;;;;;9.77;7.63;;;17.20;99.90;;;;;;5017696;28;20814;-72
2021/09/27 05:24:27;;;;;;;11.50;8.53;;;17.20;99.90;;;;;;5056644;28;20450;-72
2021/09/27 05:27:04;;;;;;;10.20;7.57;;;17.20;99.90;;;;;;5031781;28;20874;-72
2021/09/27 05:29:51;;;;;;;8.77;6.87;;;17.20;99.90;;;;;;5067789;28;20461;-72
2021/09/27 05:32:32;;;;;;;12.60;7.60;;;17.20;99.90;;;;;;5062920;28;20442;-72
2021/09/27 05:35:28;;;;;;;11.00;7.80;;;17.10;99.90;;;;;;5045435;28;20481;-72
2021/09/27 05:38:10;;;;;;;8.90;7.30;;;17.10;99.90;;;;;;5065327;28;20861;-72
2021/09/27 05:40:57;;;;;;;10.90;7.90;;;17.10;99.90;;;;;;5033597;28;20520;-72
2021/09/27 05:43:30;;;;;;;8.20;6.57;;;17.10;99.90;;;;;;5056896;28;20446;-72
2021/09/27 05:46:07;;;;;;;9.03;7.90;;;17.00;99.90;;;;;;5035602;28;20491;-73
2021/09/27 05:48:35;;;;;;;8.90;7.03;;;17.00;99.90;;;;;;5036329;28;20445;-72
2021/09/27 05:51:16;;;;;;;9.33;7.30;;;17.00;99.90;;;;;;5052513;28;20442;-72
2021/09/27 05:54:07;;;;;;;13.90;7.60;;;17.00;99.90;;;;;;5045927;28;20461;-72
2021/09/27 05:56:46;;;;;;;8.93;6.80;;;17.00;99.90;;;;;;5061176;28;20457;-73
2021/09/27 05:59:27;;;;;;;8.67;6.80;;;17.00;99.90;;;;;;5051782;28;20453;-71
2021/09/27 06:01:58;;;;;;;9.70;7.03;;;17.00;99.90;;;;;;5050706;28;20549;-72
2021/09/27 06:04:42;;;;;;;8.93;6.60;;;17.00;99.90;;;;;;5065008;28;20461;-72
2021/09/27 06:07:18;;;;;;;8.20;5.60;;;17.00;99.90;;;;;;5051915;28;20480;-72
2021/09/27 06:09:52;;;;;;;6.80;6.03;;;17.00;99.90;;;;;;5036217;28;20460;-72
2021/09/27 06:12:24;;;;;;;9.30;7.57;;;17.00;99.90;;;;;;5035882;28;20449;-72
2021/09/27 06:14:54;;;;;;;6.63;5.93;;;17.00;99.90;;;;;;5069135;28;20468;-72
2021/09/27 06:17:52;;;;;;;7.03;5.93;;;17.00;99.90;;;;;;5067097;28;20441;-72
2021/09/27 06:20:41;;;;;;;7.60;6.73;;;17.00;99.90;;;;;;5017943;28;20557;-72
2021/09/27 06:23:26;;;;;;;6.37;5.23;;;17.00;99.90;;;;;;5046569;28;20459;-72
2021/09/27 06:26:10;;;;;;;7.20;5.80;;;16.90;99.90;;;;;;5034498;28;20465;-72
2021/09/27 06:29:00;;;;;;;7.93;6.37;;;16.90;99.90;;;;;;5042667;28;20981;-72
2021/09/27 06:31:35;;;;;;;6.77;5.47;;;16.90;99.90;;;;;;5049266;28;20474;-72
2021/09/27 06:34:23;;;;;;;7.77;6.00;;;16.90;99.90;;;;;;5063446;28;20530;-71
2021/09/27 06:36:50;;;;;;;8.23;6.30;;;16.90;99.90;;;;;;5049777;28;20465;-71
2021/09/27 06:39:21;;;;;;;8.53;6.50;;;16.90;99.90;;;;;;5038137;28;20465;-72
2021/09/27 06:41:49;;;;;;;7.63;6.83;;;16.90;99.90;;;;;;5051253;28;20488;-72
2021/09/27 06:44:16;;;;;;;8.40;7.07;;;16.90;99.90;;;;;;5052738;28;20538;-72
2021/09/27 06:46:42;;;;;;;6.47;5.50;;;16.90;99.90;;;;;;5068762;28;20537;-72
2021/09/27 06:49:09;;;;;;;8.17;6.87;;;16.90;99.90;;;;;;5048614;28;20463;-72
2021/09/27 06:51:41;;;;;;;8.17;5.83;;;16.90;99.90;;;;;;5032458;28;20458;-73
2021/09/27 06:54:07;;;;;;;6.93;5.77;;;16.90;99.90;;;;;;5031231;28;20477;-72
2021/09/27 06:56:33;;;;;;;10.50;7.30;;;16.90;99.90;;;;;;5031122;28;21021;-72
2021/09/27 06:58:59;;;;;;;10.07;7.30;;;16.90;99.90;;;;;;5050613;28;20545;-73
2021/09/27 07:01:25;;;;;;;11.17;7.30;;;16.90;99.90;;;;;;5047073;28;20232;-72
2021/09/27 07:03:50;;;;;;;10.50;7.93;;;16.90;99.90;;;;;;5045110;28;20261;-72
2021/09/27 07:06:16;;;;;;;10.77;6.57;;;16.90;99.90;;;;;;5068827;28;20643;-72
2021/09/27 07:08:42;;;;;;;10.33;7.10;;;16.90;99.90;;;;;;5050926;28;20243;-72
2021/09/27 07:11:07;;;;;;;28.27;19.00;;;16.90;99.90;;;;;;5035188;28;20223;-72
2021/09/27 07:13:34;;;;;;;21.50;13.10;;;16.90;99.90;;;;;;5067378;28;20215;-72
2021/09/27 07:15:59;;;;;;;11.60;8.83;;;16.90;99.90;;;;;;5018928;28;20590;-72
2021/09/27 07:18:25;;;;;;;12.20;8.80;;;16.90;99.90;;;;;;5031595;28;20453;-73
2021/09/27 07:20:51;;;;;;;11.23;8.70;;;16.90;99.90;;;;;;5043143;28;20261;-73
2021/09/27 07:23:17;;;;;;;12.60;8.90;;;16.90;99.90;;;;;;5067807;28;20707;-73
2021/09/27 07:25:43;;;;;;;10.80;7.20;;;17.00;99.90;;;;;;5034453;28;20222;-72
2021/09/27 07:28:09;;;;;;;12.23;7.97;;;17.00;99.90;;;;;;5033876;28;20449;-72
2021/09/27 07:30:36;;;;;;;9.33;7.77;;;17.00;99.90;;;;;;5043479;28;20246;-72
2021/09/27 07:33:03;;;;;;;11.57;7.43;;;17.00;99.90;;;;;;5030507;28;20220;-72
2021/09/27 07:35:30;;;;;;;8.67;6.93;;;17.00;99.90;;;;;;5055540;28;20449;-72
2021/09/27 07:37:57;;;;;;;10.07;7.50;;;17.00;99.90;;;;;;5037530;28;20980;-73
2021/09/27 07:40:27;;;;;;;8.73;6.50;;;17.00;99.90;;;;;;5046692;28;20472;-72
2021/09/27 07:42:52;;;;;;;8.80;6.70;;;17.00;99.90;;;;;;5033171;28;20515;-72
2021/09/27 07:45:20;;;;;;;11.80;8.40;;;17.00;99.90;;;;;;5036410;28;20444;-72
2021/09/27 07:47:46;;;;;;;11.53;7.47;;;17.00;99.90;;;;;;5070904;28;20594;-73
2021/09/27 07:50:12;;;;;;;11.40;8.40;;;17.00;99.90;;;;;;5037429;28;20460;-72
2021/09/27 07:52:38;;;;;;;9.93;7.60;;;17.00;99.90;;;;;;5028163;28;20257;-72
2021/09/27 07:55:05;;;;;;;10.47;8.43;;;17.00;99.90;;;;;;5054101;28;20445;-72
2021/09/27 07:57:31;;;;;;;11.70;8.57;;;17.00;99.90;;;;;;5037558;28;20219;-72
2021/09/27 07:59:57;;;;;;;11.30;8.77;;;17.00;99.90;;;;;;5054215;28;20449;-72
2021/09/27 08:02:28;;;;;;;14.43;7.50;;;17.00;99.90;;;;;;5036472;28;20518;-72
2021/09/27 08:04:54;;;;;;;10.40;7.77;;;17.10;99.90;;;;;;5054670;28;20631;-72
2021/09/27 08:07:21;;;;;;;11.37;8.40;;;17.10;99.90;;;;;;5055482;28;20457;-72
2021/09/27 08:09:47;;;;;;;10.13;7.00;;;17.10;99.90;;;;;;5053027;28;20268;-72
2021/09/27 08:12:13;;;;;;;11.17;7.47;;;17.10;99.90;;;;;;5037435;28;20517;-72
2021/09/27 08:14:39;;;;;;;9.80;7.53;;;17.20;99.90;;;;;;5054306;28;20469;-73
2021/09/27 08:17:05;;;;;;;12.57;8.07;;;17.20;99.90;;;;;;5055086;28;20456;-72
2021/09/27 08:19:32;;;;;;;14.33;7.50;;;17.30;99.90;;;;;;5050168;28;20536;-72
2021/09/27 08:21:58;;;;;;;10.20;7.70;;;17.30;99.90;;;;;;5067508;28;20477;-72
2021/09/27 08:24:24;;;;;;;11.17;8.77;;;17.30;99.90;;;;;;5032095;28;20469;-72
2021/09/27 08:26:49;;;;;;;11.47;8.00;;;17.40;99.90;;;;;;5052466;28;20218;-72
2021/09/27 08:29:16;;;;;;;12.00;7.60;;;17.40;99.90;;;;;;5071835;28;20836;-72
2021/09/27 08:31:42;;;;;;;10.97;7.93;;;17.40;99.90;;;;;;5053830;28;20226;-72
2021/09/27 08:34:09;;;;;;;10.37;7.67;;;17.40;99.90;;;;;;5034263;28;20457;-72
2021/09/27 08:36:35;;;;;;;15.60;9.00;;;17.40;99.90;;;;;;5054155;28;20305;-72
2021/09/27 08:39:03;;;;;;;11.03;8.30;;;17.40;99.90;;;;;;5036483;28;20434;-73
2021/09/27 08:41:51;;;;;;;13.00;7.70;;;17.40;99.90;;;;;;5036964;28;20499;-73
2021/09/27 08:44:45;;;;;;;12.07;8.73;;;17.50;99.90;;;;;;5031590;28;20561;-72
2021/09/27 08:47:26;;;;;;;8.50;7.20;;;17.50;99.90;;;;;;5034245;28;20504;-72
2021/09/27 08:50:06;;;;;;;11.57;8.50;;;17.50;99.90;;;;;;5041786;28;20446;-72
2021/09/27 08:52:36;;;;;;;10.20;8.80;;;17.50;99.90;;;;;;5045343;28;20451;-72
2021/09/27 08:55:07;;;;;;;9.70;7.50;;;17.50;99.90;;;;;;5053292;28;20468;-73
2021/09/27 08:57:59;;;;;;;12.10;8.03;;;17.60;99.90;;;;;;5054451;28;21129;-72
2021/09/27 09:00:36;;;;;;;9.97;7.90;;;17.60;99.90;;;;;;5036321;28;20590;-72
2021/09/27 09:03:08;;;;;;;9.93;7.93;;;17.60;99.90;;;;;;5046404;28;20529;-73
2021/09/27 09:05:48;;;;;;;8.30;7.33;;;17.60;99.90;;;;;;5034619;28;20608;-73
2021/09/27 09:08:37;;;;;;;9.13;6.73;;;17.70;99.90;;;;;;5043279;28;20445;-72
2021/09/27 09:11:52;;;;;;;8.00;6.10;;;17.70;99.90;;;;;;5021442;28;20450;-73
2021/09/27 09:14:30;;;;;;;9.03;7.50;;;17.70;99.90;;;;;;4950946;28;20459;-72
2021/09/27 09:16:58;;;;;;;7.87;7.07;;;17.80;99.90;;;;;;4953907;28;20451;-73
2021/09/27 09:19:30;;;;;;;11.40;7.97;;;17.80;99.90;;;;;;5026097;28;20472;-72
2021/09/27 09:22:09;;;;;;;7.43;5.60;;;17.90;99.90;;;;;;5032113;28;20612;-73
2021/09/27 09:24:38;;;;;;;7.50;6.57;;;17.90;99.90;;;;;;5034124;28;20509;-73
2021/09/27 09:27:13;;;;;;;7.90;7.10;;;18.00;99.90;;;;;;5052063;28;20470;-73
2021/09/27 09:29:44;;;;;;;9.80;8.10;;;18.00;99.90;;;;;;5045932;28;20574;-71
2021/09/27 09:32:13;;;;;;;7.53;6.37;;;18.10;99.90;;;;;;5035798;28;20969;-71
2021/09/27 09:34:38;;;;;;;8.20;7.20;;;18.10;99.90;;;;;;5065232;28;20458;-72
2021/09/27 09:37:38;;;;;;;10.33;8.13;;;18.10;99.90;;;;;;5049291;28;20502;-72
2021/09/27 09:40:24;;;;;;;9.90;6.80;;;18.20;99.90;;;;;;5049217;28;20215;-73
2021/09/27 09:43:05;;;;;;;10.10;7.50;;;18.20;99.90;;;;;;5046098;28;20453;-72
2021/09/27 09:45:35;;;;;;;6.30;5.67;;;18.30;99.90;;;;;;5031354;28;20492;-72
2021/09/27 09:48:24;;;;;;;7.87;6.77;;;18.50;99.90;;;;;;5035911;28;20447;-72
2021/09/27 09:50:56;;;;;;;8.73;6.57;;;18.60;99.90;;;;;;5049161;28;20529;-73
2021/09/27 09:53:28;;;;;;;7.47;6.67;;;18.70;99.90;;;;;;5050592;28;20453;-73
2021/09/27 09:56:01;;;;;;;8.47;6.03;;;18.80;99.90;;;;;;5028544;28;20825;-73
2021/09/27 09:58:34;;;;;;;7.00;6.17;;;18.90;99.90;;;;;;5052592;28;20465;-73
2021/09/27 10:01:18;;;;;;;8.47;5.57;;;19.00;99.90;;;;;;5047286;28;20538;-73
2021/09/27 10:03:59;;;;;;;8.47;6.03;;;19.10;99.90;;;;;;5043924;28;20450;-73
2021/09/27 10:06:32;;;;;;;7.70;6.80;;;19.30;99.90;;;;;;5068839;28;20453;-73
2021/09/27 10:09:00;;;;;;;8.77;6.17;;;19.50;99.90;;;;;;5066449;28;20638;-72
2021/09/27 10:11:34;;;;;;;8.67;7.77;;;19.60;99.90;;;;;;5050678;28;20531;-73
2021/09/27 10:14:17;;;;;;;10.73;6.97;;;19.70;99.90;;;;;;5068286;28;20513;-73
2021/09/27 10:16:49;;;;;;;8.10;6.57;;;19.80;99.90;;;;;;5050878;28;21014;-73
2021/09/27 10:19:21;;;;;;;7.13;5.77;;;19.90;99.90;;;;;;5033635;28;20457;-73
2021/09/27 10:22:09;;;;;;;9.33;6.23;;;19.90;99.90;;;;;;5050658;28;20540;-72
2021/09/27 10:24:40;;;;;;;8.70;5.87;;;19.90;99.90;;;;;;5070088;28;20473;-72
2021/09/27 10:27:30;;;;;;;7.97;7.13;;;19.90;99.90;;;;;;5046676;28;20591;-72
2021/09/27 10:29:59;;;;;;;7.83;6.23;;;19.90;99.90;;;;;;5031982;28;20465;-70
2021/09/27 10:32:39;;;;;;;9.23;6.80;;;19.90;99.90;;;;;;5031445;28;20842;-73
2021/09/27 10:35:40;;;;;;;7.53;5.83;;;20.00;99.90;;;;;;5057355;28;20481;-72
2021/09/27 10:38:10;;;;;;;6.30;5.70;;;20.00;99.90;;;;;;5015963;28;20450;-73
2021/09/27 10:40:38;;;;;;;7.93;5.93;;;20.10;99.90;;;;;;5014964;28;20474;-73
2021/09/27 10:43:07;;;;;;;11.33;7.00;;;20.10;99.90;;;;;;5046774;28;20449;-73
2021/09/27 10:45:37;;;;;;;6.90;6.00;;;20.10;99.90;;;;;;5033973;28;20454;-73
2021/09/27 10:48:05;;;;;;;7.23;6.53;;;20.10;99.90;;;;;;5032717;28;20441;-73
2021/09/27 10:50:36;;;;;;;7.43;5.97;;;20.20;99.90;;;;;;5048348;28;20532;-72
2021/09/27 10:53:16;;;;;;;6.10;5.50;;;20.20;99.90;;;;;;5048599;28;20438;-72
2021/09/27 10:55:47;;;;;;;7.33;6.27;;;20.20;99.90;;;;;;5028626;28;20500;-72
2021/09/27 10:58:25;;;;;;;7.33;6.10;;;20.20;99.90;;;;;;5029129;28;20449;-72
2021/09/27 11:00:52;;;;;;;7.20;6.10;;;20.30;99.90;;;;;;5058707;28;20469;-72
2021/09/27 11:03:24;;;;;;;6.67;6.10;;;20.30;99.90;;;;;;5032845;28;20446;-72
2021/09/27 11:06:20;;;;;;;7.30;5.60;;;20.30;99.90;;;;;;5018818;28;20879;-70
2021/09/27 11:08:45;;;;;;;7.47;6.30;;;20.30;99.90;;;;;;5027426;28;20465;-72
2021/09/27 11:11:14;;;;;;;5.87;5.30;;;20.30;99.90;;;;;;5043807;28;20977;-72
2021/09/27 11:13:42;;;;;;;8.30;5.83;;;20.30;99.90;;;;;;5044600;28;20218;-72
2021/09/27 11:16:37;;;;;;;5.77;5.17;;;20.40;99.90;;;;;;5037794;28;20458;-71
2021/09/27 11:19:32;;;;;;;5.63;5.03;;;20.40;99.90;;;;;;5046310;28;20449;-73
2021/09/27 11:22:31;;;;;;;7.30;5.23;;;20.40;99.90;;;;;;5020641;28;20471;-72
2021/09/27 11:25:21;;;;;;;6.40;5.40;;;20.40;99.90;;;;;;5027491;28;20473;-72
2021/09/27 11:28:11;;;;;;;12.07;5.43;;;20.40;99.90;;;;;;5056450;28;20479;-73
2021/09/27 11:30:43;;;;;;;5.73;5.13;;;20.40;99.90;;;;;;5048299;28;20976;-72
2021/09/27 11:33:30;;;;;;;5.60;4.87;;;20.50;99.90;;;;;;5029670;28;20465;-72
2021/09/27 11:36:03;;;;;;;5.27;4.77;;;20.50;99.90;;;;;;5047574;28;20804;-72
2021/09/27 11:38:34;;;;;;;6.67;4.73;;;20.60;99.90;;;;;;5032626;28;20461;-72
2021/09/27 11:41:20;;;;;;;7.50;4.90;;;20.60;99.90;;;;;;5045170;28;20973;-72
2021/09/27 11:43:57;;;;;;;7.03;4.77;;;20.60;99.90;;;;;;5034229;28;20453;-73
2021/09/27 11:46:30;;;;;;;5.00;4.50;;;20.70;99.90;;;;;;5032376;28;21025;-72
2021/09/27 11:52:11;;;;;;;4.53;4.13;;;20.80;99.90;;;;;;5059447;28;20461;-72
2021/09/27 11:55:03;;;;;;;4.60;4.20;;;20.80;99.90;;;;;;5047289;28;20458;-72
2021/09/27 11:57:36;;;;;;;8.57;5.60;;;20.90;99.90;;;;;;5048210;28;20453;-72
2021/09/27 12:00:16;;;;;;;6.20;4.50;;;20.90;99.90;;;;;;5046883;28;20824;-72
2021/09/27 12:03:16;;;;;;;4.73;4.27;;;20.90;99.90;;;;;;5041856;28;20465;-72
2021/09/27 12:05:57;;;;;;;4.97;4.47;;;21.00;99.90;;;;;;5033908;28;20457;-72
2021/09/27 12:08:41;;;;;;;6.83;5.70;;;21.00;99.90;;;;;;5029582;28;20520;-72
2021/09/27 12:11:12;;;;;;;6.10;5.10;;;21.00;99.90;;;;;;5028892;28;20527;-72
2021/09/27 12:13:45;;;;;;;4.37;3.97;;;21.10;99.90;;;;;;5046729;28;20450;-72
2021/09/27 12:16:34;;;;;;;5.83;5.20;;;21.10;99.90;;;;;;5045609;28;20458;-72
2021/09/27 12:19:22;;;;;;;4.30;3.90;;;21.10;99.90;;;;;;5044216;28;20441;-72
2021/09/27 12:21:54;;;;;;;5.70;4.97;;;21.20;99.90;;;;;;5014815;28;20466;-72
2021/09/27 12:24:26;;;;;;;8.53;4.23;;;21.20;99.90;;;;;;5056999;28;20473;-73
2021/09/27 12:27:06;;;;;;;5.67;5.07;;;21.20;99.90;;;;;;5051834;28;20480;-70
2021/09/27 12:29:33;;;;;;;5.00;4.47;;;21.20;99.90;;;;;;5052393;28;20461;-72
2021/09/27 12:32:00;;;;;;;7.63;5.07;;;21.20;99.90;;;;;;5050616;28;20445;-70
2021/09/27 12:34:46;;;;;;;4.60;4.30;;;21.20;99.90;;;;;;5051818;28;20461;-72
2021/09/27 12:37:18;;;;;;;4.60;4.10;;;21.20;99.90;;;;;;5052204;28;20833;-72
2021/09/27 12:39:45;;;;;;;4.57;4.20;;;21.20;99.90;;;;;;5068868;28;20493;-73
2021/09/27 12:42:22;;;;;;;4.43;4.00;;;21.20;99.90;;;;;;5042313;28;20480;-72
2021/09/27 12:45:19;;;;;;;4.70;4.30;;;21.20;99.90;;;;;;5049403;28;20889;-71
2021/09/27 12:47:45;;;;;;;4.40;4.00;;;21.30;99.90;;;;;;5014947;28;20504;-71
2021/09/27 12:50:12;;;;;;;4.23;3.87;;;21.30;99.90;;;;;;5026934;28;21016;-72
2021/09/27 12:52:47;;;;;;;6.57;4.40;;;21.30;99.90;;;;;;5028012;28;20981;-72
2021/09/27 12:55:18;;;;;;;4.77;4.37;;;21.40;99.90;;;;;;5029863;28;20456;-72
2021/09/27 12:57:48;;;;;;;4.37;3.97;;;21.40;99.90;;;;;;5037525;28;20457;-72
2021/09/27 13:00:31;;;;;;;4.13;3.73;;;21.50;99.90;;;;;;5054876;28;20504;-72
2021/09/27 13:03:03;;;;;;;3.90;3.60;;;21.50;99.90;;;;;;5049688;28;20882;-72
2021/09/27 13:05:52;;;;;;;4.43;4.07;;;21.60;99.90;;;;;;5069472;28;20465;-72
2021/09/27 13:08:38;;;;;;;4.10;3.80;;;21.60;99.90;;;;;;5049420;28;20528;-72
2021/09/27 13:11:03;;;;;;;4.17;3.77;;;21.70;99.90;;;;;;5050408;28;21048;-72
2021/09/27 13:13:29;;;;;;;4.23;3.73;;;21.80;99.90;;;;;;5067877;28;20449;-71
2021/09/27 13:16:00;;;;;;;3.90;3.60;;;21.80;99.90;;;;;;5029919;28;20223;-72
2021/09/27 13:18:34;;;;;;;3.93;3.63;;;21.80;99.90;;;;;;5049981;28;20211;-73
2021/09/27 13:21:05;;;;;;;3.60;3.30;;;21.70;99.90;;;;;;5042704;28;20973;-72
2021/09/27 13:23:40;;;;;;;3.47;3.17;;;21.70;99.90;;;;;;5030959;28;20458;-71
2021/09/27 13:26:13;;;;;;;3.23;3.03;;;21.70;99.90;;;;;;5052645;28;20468;-72
2021/09/27 13:28:44;;;;;;;6.23;3.70;;;21.70;99.90;;;;;;5052441;28;20980;-72